sensor_id;sensor_type;location;lat;lon;timestamp;P1;durP1;ratioP1;P2;durP2;ratioP2
12976;SDS011;6553;48.412;9.514;2023-09-08T00:02:04;3.92;;;3.63;;
12976;SDS011;6553;48.412;9.514;2023-09-08T00:04:30;4.07;;;3.78;;
12976;SDS011;6553;48.412;9.514;2023-09-08T00:06:55;3.92;;;3.63;;
12976;SDS011;6553;48.412;9.514;2023-09-08T00:09:21;3.60;;;3.40;;
12976;SDS011;6553;48.412;9.514;2023-09-08T00:11:47;4.07;;;3.78;;
12976;SDS011;6553;48.412;9.514;2023-09-08T00:14:12;4.07;;;3.75;;
12976;SDS011;6553;48.412;9.514;2023-09-08T00:16:38;3.72;;;3.47;;
12976;SDS011;6553;48.412;9.514;2023-09-08T00:19:07;4.28;;;3.97;;
12976;SDS011;6553;48.412;9.514;2023-09-08T00:21:35;4.18;;;3.88;;
12976;SDS011;6553;48.412;9.514;2023-09-08T00:24:02;3.75;;;3.50;;
12976;SDS011;6553;48.412;9.514;2023-09-08T00:26:29;3.80;;;3.50;;
12976;SDS011;6553;48.412;9.514;2023-09-08T00:28:56;4.30;;;3.90;;
12976;SDS011;6553;48.412;9.514;2023-09-08T00:31:21;4.03;;;3.72;;
12976;SDS011;6553;48.412;9.514;2023-09-08T00:33:47;4.05;;;3.75;;
12976;SDS011;6553;48.412;9.514;2023-09-08T00:36:13;4.07;;;3.78;;
12976;SDS011;6553;48.412;9.514;2023-09-08T00:38:40;4.10;;;3.80;;
12976;SDS011;6553;48.412;9.514;2023-09-08T00:41:06;4.43;;;3.95;;
12976;SDS011;6553;48.412;9.514;2023-09-08T00:43:32;4.63;;;4.32;;
12976;SDS011;6553;48.412;9.514;2023-09-08T00:45:58;4.28;;;3.97;;
12976;SDS011;6553;48.412;9.514;2023-09-08T00:48:28;3.90;;;3.60;;
12976;SDS011;6553;48.412;9.514;2023-09-08T00:50:54;3.80;;;3.53;;
12976;SDS011;6553;48.412;9.514;2023-09-08T00:53:21;4.18;;;3.88;;
12976;SDS011;6553;48.412;9.514;2023-09-08T00:55:48;3.90;;;3.60;;
12976;SDS011;6553;48.412;9.514;2023-09-08T00:58:15;4.25;;;3.85;;
12976;SDS011;6553;48.412;9.514;2023-09-08T01:00:41;4.32;;;3.92;;
12976;SDS011;6553;48.412;9.514;2023-09-08T01:03:07;4.00;;;3.70;;
12976;SDS011;6553;48.412;9.514;2023-09-08T01:05:33;4.35;;;4.05;;
12976;SDS011;6553;48.412;9.514;2023-09-08T01:07:59;3.75;;;3.42;;
12976;SDS011;6553;48.412;9.514;2023-09-08T01:10:26;3.85;;;3.60;;
12976;SDS011;6553;48.412;9.514;2023-09-08T01:12:52;4.18;;;3.88;;
12976;SDS011;6553;48.412;9.514;2023-09-08T01:15:18;3.83;;;3.53;;
12976;SDS011;6553;48.412;9.514;2023-09-08T01:17:44;3.88;;;3.58;;
12976;SDS011;6553;48.412;9.514;2023-09-08T01:23:01;3.58;;;3.28;;
12976;SDS011;6553;48.412;9.514;2023-09-08T01:25:50;3.85;;;3.55;;
12976;SDS011;6553;48.412;9.514;2023-09-08T01:28:25;3.85;;;3.55;;
12976;SDS011;6553;48.412;9.514;2023-09-08T01:30:52;3.50;;;3.30;;
12976;SDS011;6553;48.412;9.514;2023-09-08T01:33:21;4.18;;;3.80;;
12976;SDS011;6553;48.412;9.514;2023-09-08T01:35:48;3.58;;;3.30;;
12976;SDS011;6553;48.412;9.514;2023-09-08T01:38:14;3.67;;;3.38;;
12976;SDS011;6553;48.412;9.514;2023-09-08T01:40:41;3.60;;;3.40;;
12976;SDS011;6553;48.412;9.514;2023-09-08T01:43:07;3.70;;;3.40;;
12976;SDS011;6553;48.412;9.514;2023-09-08T01:45:32;3.70;;;3.40;;
12976;SDS011;6553;48.412;9.514;2023-09-08T01:47:58;3.75;;;3.45;;
12976;SDS011;6553;48.412;9.514;2023-09-08T01:50:25;4.22;;;3.92;;
12976;SDS011;6553;48.412;9.514;2023-09-08T01:52:51;3.80;;;3.50;;
12976;SDS011;6553;48.412;9.514;2023-09-08T01:55:17;3.78;;;3.50;;
12976;SDS011;6553;48.412;9.514;2023-09-08T01:57:43;4.07;;;3.78;;
12976;SDS011;6553;48.412;9.514;2023-09-08T02:00:10;4.18;;;3.45;;
12976;SDS011;6553;48.412;9.514;2023-09-08T02:02:39;4.10;;;3.80;;
12976;SDS011;6553;48.412;9.514;2023-09-08T02:05:05;4.00;;;3.70;;
12976;SDS011;6553;48.412;9.514;2023-09-08T02:07:33;3.88;;;3.58;;
12976;SDS011;6553;48.412;9.514;2023-09-08T02:09:58;4.20;;;3.80;;
12976;SDS011;6553;48.412;9.514;2023-09-08T02:12:24;3.60;;;3.30;;
12976;SDS011;6553;48.412;9.514;2023-09-08T02:14:50;3.92;;;3.63;;
12976;SDS011;6553;48.412;9.514;2023-09-08T02:17:17;4.53;;;3.88;;
12976;SDS011;6553;48.412;9.514;2023-09-08T02:19:43;4.15;;;3.85;;
12976;SDS011;6553;48.412;9.514;2023-09-08T02:22:09;3.85;;;3.55;;
12976;SDS011;6553;48.412;9.514;2023-09-08T02:24:36;3.42;;;3.13;;
12976;SDS011;6553;48.412;9.514;2023-09-08T02:27:01;4.35;;;3.95;;
12976;SDS011;6553;48.412;9.514;2023-09-08T02:29:28;4.03;;;3.72;;
12976;SDS011;6553;48.412;9.514;2023-09-08T02:31:54;3.90;;;3.60;;
12976;SDS011;6553;48.412;9.514;2023-09-08T02:34:20;3.95;;;3.65;;
12976;SDS011;6553;48.412;9.514;2023-09-08T02:36:45;4.07;;;3.78;;
12976;SDS011;6553;48.412;9.514;2023-09-08T02:39:13;3.80;;;3.50;;
12976;SDS011;6553;48.412;9.514;2023-09-08T02:41:39;3.63;;;3.33;;
12976;SDS011;6553;48.412;9.514;2023-09-08T02:44:05;4.40;;;4.03;;
12976;SDS011;6553;48.412;9.514;2023-09-08T02:46:31;3.72;;;3.42;;
12976;SDS011;6553;48.412;9.514;2023-09-08T02:48:57;3.78;;;3.47;;
12976;SDS011;6553;48.412;9.514;2023-09-08T02:51:23;3.90;;;3.60;;
12976;SDS011;6553;48.412;9.514;2023-09-08T02:53:49;4.05;;;3.75;;
12976;SDS011;6553;48.412;9.514;2023-09-08T02:56:15;3.88;;;3.58;;
12976;SDS011;6553;48.412;9.514;2023-09-08T02:58:40;3.88;;;3.58;;
12976;SDS011;6553;48.412;9.514;2023-09-08T03:01:11;3.83;;;3.53;;
12976;SDS011;6553;48.412;9.514;2023-09-08T03:03:42;3.80;;;3.50;;
12976;SDS011;6553;48.412;9.514;2023-09-08T03:06:10;4.18;;;3.88;;
12976;SDS011;6553;48.412;9.514;2023-09-08T03:08:38;4.20;;;3.80;;
12976;SDS011;6553;48.412;9.514;2023-09-08T03:11:04;3.50;;;3.25;;
12976;SDS011;6553;48.412;9.514;2023-09-08T03:13:31;3.50;;;3.30;;
12976;SDS011;6553;48.412;9.514;2023-09-08T03:16:03;3.78;;;3.47;;
12976;SDS011;6553;48.412;9.514;2023-09-08T03:18:33;4.07;;;3.78;;
12976;SDS011;6553;48.412;9.514;2023-09-08T03:21:01;4.03;;;3.63;;
12976;SDS011;6553;48.412;9.514;2023-09-08T03:23:37;3.90;;;3.60;;
12976;SDS011;6553;48.412;9.514;2023-09-08T03:26:05;3.90;;;3.60;;
12976;SDS011;6553;48.412;9.514;2023-09-08T03:28:32;3.80;;;3.50;;
12976;SDS011;6553;48.412;9.514;2023-09-08T03:31:03;4.32;;;4.03;;
12976;SDS011;6553;48.412;9.514;2023-09-08T03:33:32;3.80;;;3.50;;
12976;SDS011;6553;48.412;9.514;2023-09-08T03:35:58;3.90;;;3.60;;
12976;SDS011;6553;48.412;9.514;2023-09-08T03:38:24;3.90;;;3.50;;
12976;SDS011;6553;48.412;9.514;2023-09-08T03:40:52;3.75;;;3.50;;
12976;SDS011;6553;48.412;9.514;2023-09-08T03:43:17;3.72;;;3.42;;
12976;SDS011;6553;48.412;9.514;2023-09-08T03:45:43;3.83;;;3.53;;
12976;SDS011;6553;48.412;9.514;2023-09-08T03:48:09;4.10;;;3.80;;
12976;SDS011;6553;48.412;9.514;2023-09-08T03:50:35;3.70;;;3.40;;
12976;SDS011;6553;48.412;9.514;2023-09-08T03:53:02;4.57;;;3.80;;
12976;SDS011;6553;48.412;9.514;2023-09-08T03:55:28;4.28;;;3.97;;
12976;SDS011;6553;48.412;9.514;2023-09-08T03:57:53;3.78;;;3.47;;
12976;SDS011;6553;48.412;9.514;2023-09-08T04:00:19;4.68;;;3.40;;
12976;SDS011;6553;48.412;9.514;2023-09-08T04:02:50;3.65;;;3.35;;
12976;SDS011;6553;48.412;9.514;2023-09-08T04:05:16;4.07;;;3.78;;
12976;SDS011;6553;48.412;9.514;2023-09-08T04:07:43;4.30;;;4.00;;
12976;SDS011;6553;48.412;9.514;2023-09-08T04:10:12;3.75;;;3.42;;
12976;SDS011;6553;48.412;9.514;2023-09-08T04:12:39;4.28;;;3.90;;
12976;SDS011;6553;48.412;9.514;2023-09-08T04:15:06;3.88;;;3.58;;
12976;SDS011;6553;48.412;9.514;2023-09-08T04:17:33;3.90;;;3.60;;
12976;SDS011;6553;48.412;9.514;2023-09-08T04:20:04;4.63;;;4.22;;
12976;SDS011;6553;48.412;9.514;2023-09-08T04:22:32;3.78;;;3.50;;
12976;SDS011;6553;48.412;9.514;2023-09-08T04:24:59;3.80;;;3.50;;
12976;SDS011;6553;48.412;9.514;2023-09-08T04:27:27;3.88;;;3.67;;
12976;SDS011;6553;48.412;9.514;2023-09-08T04:29:53;3.95;;;3.65;;
12976;SDS011;6553;48.412;9.514;2023-09-08T04:32:18;4.35;;;4.03;;
12976;SDS011;6553;48.412;9.514;2023-09-08T04:34:44;4.00;;;3.53;;
12976;SDS011;6553;48.412;9.514;2023-09-08T04:37:10;4.35;;;4.03;;
12976;SDS011;6553;48.412;9.514;2023-09-08T04:39:36;4.00;;;3.70;;
12976;SDS011;6553;48.412;9.514;2023-09-08T04:42:05;3.75;;;3.45;;
12976;SDS011;6553;48.412;9.514;2023-09-08T04:44:32;3.58;;;3.38;;
12976;SDS011;6553;48.412;9.514;2023-09-08T04:46:58;4.10;;;3.80;;
12976;SDS011;6553;48.412;9.514;2023-09-08T04:49:24;3.95;;;3.65;;
12976;SDS011;6553;48.412;9.514;2023-09-08T04:51:50;4.28;;;3.75;;
12976;SDS011;6553;48.412;9.514;2023-09-08T04:54:18;4.45;;;4.05;;
12976;SDS011;6553;48.412;9.514;2023-09-08T04:56:46;4.65;;;4.18;;
12976;SDS011;6553;48.412;9.514;2023-09-08T04:59:12;4.28;;;3.97;;
12976;SDS011;6553;48.412;9.514;2023-09-08T05:01:38;3.35;;;3.15;;
12976;SDS011;6553;48.412;9.514;2023-09-08T05:04:06;4.40;;;4.00;;
12976;SDS011;6553;48.412;9.514;2023-09-08T05:06:32;3.85;;;3.55;;
12976;SDS011;6553;48.412;9.514;2023-09-08T05:08:58;3.92;;;3.63;;
12976;SDS011;6553;48.412;9.514;2023-09-08T05:11:26;3.90;;;3.60;;
12976;SDS011;6553;48.412;9.514;2023-09-08T05:13:52;3.95;;;3.65;;
12976;SDS011;6553;48.412;9.514;2023-09-08T05:16:19;4.18;;;3.78;;
12976;SDS011;6553;48.412;9.514;2023-09-08T05:18:51;3.85;;;3.55;;
12976;SDS011;6553;48.412;9.514;2023-09-08T05:21:18;4.07;;;3.75;;
12976;SDS011;6553;48.412;9.514;2023-09-08T05:23:44;4.20;;;3.80;;
12976;SDS011;6553;48.412;9.514;2023-09-08T05:26:11;3.85;;;3.50;;
12976;SDS011;6553;48.412;9.514;2023-09-08T05:28:37;3.60;;;3.30;;
12976;SDS011;6553;48.412;9.514;2023-09-08T05:31:03;4.22;;;3.90;;
12976;SDS011;6553;48.412;9.514;2023-09-08T05:33:29;3.88;;;3.58;;
12976;SDS011;6553;48.412;9.514;2023-09-08T05:35:56;3.78;;;3.47;;
12976;SDS011;6553;48.412;9.514;2023-09-08T05:38:22;3.78;;;3.47;;
12976;SDS011;6553;48.412;9.514;2023-09-08T05:40:50;3.97;;;3.67;;
12976;SDS011;6553;48.412;9.514;2023-09-08T05:43:16;3.85;;;3.55;;
12976;SDS011;6553;48.412;9.514;2023-09-08T05:45:42;4.10;;;3.80;;
12976;SDS011;6553;48.412;9.514;2023-09-08T05:48:08;4.07;;;3.78;;
12976;SDS011;6553;48.412;9.514;2023-09-08T05:50:34;3.83;;;3.53;;
12976;SDS011;6553;48.412;9.514;2023-09-08T05:52:59;3.47;;;3.28;;
12976;SDS011;6553;48.412;9.514;2023-09-08T05:55:25;4.13;;;3.72;;
12976;SDS011;6553;48.412;9.514;2023-09-08T05:57:51;4.05;;;3.75;;
12976;SDS011;6553;48.412;9.514;2023-09-08T06:00:16;3.92;;;3.60;;
12976;SDS011;6553;48.412;9.514;2023-09-08T06:02:46;3.67;;;3.38;;
12976;SDS011;6553;48.412;9.514;2023-09-08T06:05:14;3.72;;;3.42;;
12976;SDS011;6553;48.412;9.514;2023-09-08T06:07:40;3.97;;;3.67;;
12976;SDS011;6553;48.412;9.514;2023-09-08T06:10:08;4.22;;;3.85;;
12976;SDS011;6553;48.412;9.514;2023-09-08T06:12:35;4.40;;;3.88;;
12976;SDS011;6553;48.412;9.514;2023-09-08T06:15:04;3.90;;;3.60;;
12976;SDS011;6553;48.412;9.514;2023-09-08T06:17:32;4.03;;;3.72;;
12976;SDS011;6553;48.412;9.514;2023-09-08T06:19:58;3.70;;;3.40;;
12976;SDS011;6553;48.412;9.514;2023-09-08T06:22:24;4.18;;;3.88;;
12976;SDS011;6553;48.412;9.514;2023-09-08T06:24:50;3.90;;;3.60;;
12976;SDS011;6553;48.412;9.514;2023-09-08T06:27:16;4.38;;;3.97;;
12976;SDS011;6553;48.412;9.514;2023-09-08T06:29:43;4.13;;;3.72;;
12976;SDS011;6553;48.412;9.514;2023-09-08T06:32:10;3.80;;;3.50;;
12976;SDS011;6553;48.412;9.514;2023-09-08T06:34:39;3.90;;;3.60;;
12976;SDS011;6553;48.412;9.514;2023-09-08T06:37:05;4.00;;;3.70;;
12976;SDS011;6553;48.412;9.514;2023-09-08T06:39:31;3.80;;;3.50;;
12976;SDS011;6553;48.412;9.514;2023-09-08T06:41:59;4.18;;;3.88;;
12976;SDS011;6553;48.412;9.514;2023-09-08T06:44:24;3.95;;;3.65;;
12976;SDS011;6553;48.412;9.514;2023-09-08T06:46:51;3.83;;;3.53;;
12976;SDS011;6553;48.412;9.514;2023-09-08T06:49:17;4.15;;;3.83;;
12976;SDS011;6553;48.412;9.514;2023-09-08T06:51:43;4.00;;;3.60;;
12976;SDS011;6553;48.412;9.514;2023-09-08T06:54:09;4.25;;;3.85;;
12976;SDS011;6553;48.412;9.514;2023-09-08T06:56:38;4.13;;;3.83;;
12976;SDS011;6553;48.412;9.514;2023-09-08T06:59:05;4.50;;;3.90;;
12976;SDS011;6553;48.412;9.514;2023-09-08T07:01:31;3.97;;;3.67;;
12976;SDS011;6553;48.412;9.514;2023-09-08T07:03:58;4.60;;;4.07;;
12976;SDS011;6553;48.412;9.514;2023-09-08T07:06:24;4.03;;;3.72;;
12976;SDS011;6553;48.412;9.514;2023-09-08T07:08:50;3.85;;;3.50;;
12976;SDS011;6553;48.412;9.514;2023-09-08T07:11:17;3.97;;;3.67;;
12976;SDS011;6553;48.412;9.514;2023-09-08T07:13:43;3.95;;;3.65;;
12976;SDS011;6553;48.412;9.514;2023-09-08T07:16:09;5.25;;;4.15;;
12976;SDS011;6553;48.412;9.514;2023-09-08T07:18:36;4.28;;;3.88;;
12976;SDS011;6553;48.412;9.514;2023-09-08T07:21:04;4.50;;;4.10;;
12976;SDS011;6553;48.412;9.514;2023-09-08T07:23:30;4.07;;;3.78;;
12976;SDS011;6553;48.412;9.514;2023-09-08T07:25:56;4.05;;;3.75;;
12976;SDS011;6553;48.412;9.514;2023-09-08T07:28:25;4.50;;;4.18;;
12976;SDS011;6553;48.412;9.514;2023-09-08T07:30:52;3.58;;;3.28;;
12976;SDS011;6553;48.412;9.514;2023-09-08T07:33:19;4.85;;;4.45;;
12976;SDS011;6553;48.412;9.514;2023-09-08T07:35:45;4.45;;;4.10;;
12976;SDS011;6553;48.412;9.514;2023-09-08T07:38:11;4.03;;;3.72;;
12976;SDS011;6553;48.412;9.514;2023-09-08T07:40:36;4.78;;;4.38;;
12976;SDS011;6553;48.412;9.514;2023-09-08T07:43:02;4.72;;;4.32;;
12976;SDS011;6553;48.412;9.514;2023-09-08T07:45:28;4.47;;;4.07;;
12976;SDS011;6553;48.412;9.514;2023-09-08T07:47:54;4.60;;;4.20;;
12976;SDS011;6553;48.412;9.514;2023-09-08T07:50:23;5.20;;;4.10;;
12976;SDS011;6553;48.412;9.514;2023-09-08T07:52:53;5.13;;;4.70;;
12976;SDS011;6553;48.412;9.514;2023-09-08T07:55:22;4.85;;;4.45;;
12976;SDS011;6553;48.412;9.514;2023-09-08T07:57:52;4.50;;;4.10;;
12976;SDS011;6553;48.412;9.514;2023-09-08T08:00:18;5.15;;;4.75;;
12976;SDS011;6553;48.412;9.514;2023-09-08T08:02:48;4.22;;;3.85;;
12976;SDS011;6553;48.412;9.514;2023-09-08T08:05:18;4.68;;;4.28;;
12976;SDS011;6553;48.412;9.514;2023-09-08T08:07:44;4.63;;;4.22;;
12976;SDS011;6553;48.412;9.514;2023-09-08T08:10:10;4.68;;;4.20;;
12976;SDS011;6553;48.412;9.514;2023-09-08T08:12:37;4.53;;;4.13;;
12976;SDS011;6553;48.412;9.514;2023-09-08T08:15:05;4.45;;;4.15;;
12976;SDS011;6553;48.412;9.514;2023-09-08T08:17:31;4.57;;;4.18;;
12976;SDS011;6553;48.412;9.514;2023-09-08T08:19:58;4.05;;;3.70;;
12976;SDS011;6553;48.412;9.514;2023-09-08T08:22:27;4.63;;;4.18;;
12976;SDS011;6553;48.412;9.514;2023-09-08T08:24:52;4.10;;;3.78;;
12976;SDS011;6553;48.412;9.514;2023-09-08T08:27:18;4.72;;;4.32;;
12976;SDS011;6553;48.412;9.514;2023-09-08T08:29:44;4.47;;;4.07;;
12976;SDS011;6553;48.412;9.514;2023-09-08T08:32:09;4.50;;;4.18;;
12976;SDS011;6553;48.412;9.514;2023-09-08T08:34:37;4.65;;;4.25;;
12976;SDS011;6553;48.412;9.514;2023-09-08T08:37:03;4.57;;;4.18;;
12976;SDS011;6553;48.412;9.514;2023-09-08T08:39:29;4.70;;;4.30;;
12976;SDS011;6553;48.412;9.514;2023-09-08T08:41:54;5.13;;;3.83;;
12976;SDS011;6553;48.412;9.514;2023-09-08T08:44:20;4.53;;;4.20;;
12976;SDS011;6553;48.412;9.514;2023-09-08T08:46:47;4.60;;;4.25;;
12976;SDS011;6553;48.412;9.514;2023-09-08T08:49:15;4.97;;;4.57;;
12976;SDS011;6553;48.412;9.514;2023-09-08T08:51:44;4.72;;;4.32;;
12976;SDS011;6553;48.412;9.514;2023-09-08T08:54:14;4.63;;;4.22;;
12976;SDS011;6553;48.412;9.514;2023-09-08T08:56:41;4.85;;;4.43;;
12976;SDS011;6553;48.412;9.514;2023-09-08T08:59:08;4.30;;;3.90;;
12976;SDS011;6553;48.412;9.514;2023-09-08T09:01:36;4.63;;;4.22;;
12976;SDS011;6553;48.412;9.514;2023-09-08T09:04:04;4.72;;;4.30;;
12976;SDS011;6553;48.412;9.514;2023-09-08T09:06:31;5.53;;;4.38;;
12976;SDS011;6553;48.412;9.514;2023-09-08T09:08:57;4.68;;;4.32;;
12976;SDS011;6553;48.412;9.514;2023-09-08T09:11:25;4.75;;;4.35;;
12976;SDS011;6553;48.412;9.514;2023-09-08T09:13:50;4.43;;;4.03;;
12976;SDS011;6553;48.412;9.514;2023-09-08T09:16:16;4.90;;;4.40;;
12976;SDS011;6553;48.412;9.514;2023-09-08T09:18:55;4.80;;;4.28;;
12976;SDS011;6553;48.412;9.514;2023-09-08T09:24:14;4.70;;;4.30;;
12976;SDS011;6553;48.412;9.514;2023-09-08T09:26:42;4.65;;;4.28;;
12976;SDS011;6553;48.412;9.514;2023-09-08T09:29:12;4.32;;;4.00;;
12976;SDS011;6553;48.412;9.514;2023-09-08T09:31:51;4.90;;;4.50;;
12976;SDS011;6553;48.412;9.514;2023-09-08T09:34:19;4.45;;;4.10;;
12976;SDS011;6553;48.412;9.514;2023-09-08T09:36:47;4.40;;;4.00;;
12976;SDS011;6553;48.412;9.514;2023-09-08T09:39:17;4.45;;;4.05;;
12976;SDS011;6553;48.412;9.514;2023-09-08T09:41:46;5.20;;;4.70;;
12976;SDS011;6553;48.412;9.514;2023-09-08T09:44:13;4.53;;;4.13;;
12976;SDS011;6553;48.412;9.514;2023-09-08T09:46:43;4.40;;;4.10;;
12976;SDS011;6553;48.412;9.514;2023-09-08T09:49:11;5.20;;;4.70;;
12976;SDS011;6553;48.412;9.514;2023-09-08T09:51:42;4.85;;;4.45;;
12976;SDS011;6553;48.412;9.514;2023-09-08T09:54:10;4.47;;;4.07;;
12976;SDS011;6553;48.412;9.514;2023-09-08T09:56:37;4.60;;;4.30;;
12976;SDS011;6553;48.412;9.514;2023-09-08T09:59:04;4.90;;;4.50;;
12976;SDS011;6553;48.412;9.514;2023-09-08T10:01:33;4.60;;;4.30;;
12976;SDS011;6553;48.412;9.514;2023-09-08T10:04:02;4.82;;;4.50;;
12976;SDS011;6553;48.412;9.514;2023-09-08T10:06:33;4.60;;;4.15;;
12976;SDS011;6553;48.412;9.514;2023-09-08T10:09:03;4.82;;;4.43;;
12976;SDS011;6553;48.412;9.514;2023-09-08T10:11:34;4.55;;;4.25;;
12976;SDS011;6553;48.412;9.514;2023-09-08T10:14:07;4.90;;;4.50;;
12976;SDS011;6553;48.412;9.514;2023-09-08T10:16:38;5.15;;;4.75;;
12976;SDS011;6553;48.412;9.514;2023-09-08T10:19:08;4.65;;;4.32;;
12976;SDS011;6553;48.412;9.514;2023-09-08T10:21:42;4.90;;;4.50;;
12976;SDS011;6553;48.412;9.514;2023-09-08T10:24:15;5.05;;;4.65;;
12976;SDS011;6553;48.412;9.514;2023-09-08T10:26:55;4.78;;;4.38;;
12976;SDS011;6553;48.412;9.514;2023-09-08T10:29:37;4.95;;;4.45;;
12976;SDS011;6553;48.412;9.514;2023-09-08T10:32:04;4.85;;;4.38;;
12976;SDS011;6553;48.412;9.514;2023-09-08T10:34:34;4.43;;;4.13;;
12976;SDS011;6553;48.412;9.514;2023-09-08T10:37:01;5.13;;;4.63;;
12976;SDS011;6553;48.412;9.514;2023-09-08T10:39:31;4.95;;;4.60;;
12976;SDS011;6553;48.412;9.514;2023-09-08T10:47:19;5.40;;;4.70;;
12976;SDS011;6553;48.412;9.514;2023-09-08T10:49:55;5.30;;;4.85;;
12976;SDS011;6553;48.412;9.514;2023-09-08T10:52:23;5.03;;;4.63;;
12976;SDS011;6553;48.412;9.514;2023-09-08T10:54:51;6.25;;;4.60;;
12976;SDS011;6553;48.412;9.514;2023-09-08T10:57:20;5.82;;;5.25;;
12976;SDS011;6553;48.412;9.514;2023-09-08T10:59:56;4.70;;;4.30;;
12976;SDS011;6553;48.412;9.514;2023-09-08T11:02:49;4.82;;;4.43;;
12976;SDS011;6553;48.412;9.514;2023-09-08T11:05:16;5.50;;;5.10;;
12976;SDS011;6553;48.412;9.514;2023-09-08T11:07:44;5.50;;;5.03;;
12976;SDS011;6553;48.412;9.514;2023-09-08T11:10:11;4.85;;;4.45;;
12976;SDS011;6553;48.412;9.514;2023-09-08T11:12:38;4.75;;;4.45;;
12976;SDS011;6553;48.412;9.514;2023-09-08T11:15:04;4.70;;;4.40;;
12976;SDS011;6553;48.412;9.514;2023-09-08T11:17:37;5.28;;;4.82;;
12976;SDS011;6553;48.412;9.514;2023-09-08T11:20:07;5.25;;;4.75;;
12976;SDS011;6553;48.412;9.514;2023-09-08T11:22:38;5.15;;;4.75;;
12976;SDS011;6553;48.412;9.514;2023-09-08T11:25:09;5.15;;;4.70;;
12976;SDS011;6553;48.412;9.514;2023-09-08T11:27:37;5.47;;;4.97;;
12976;SDS011;6553;48.412;9.514;2023-09-08T11:30:05;5.55;;;5.05;;
12976;SDS011;6553;48.412;9.514;2023-09-08T11:32:33;6.28;;;4.53;;
12976;SDS011;6553;48.412;9.514;2023-09-08T11:35:01;4.97;;;4.45;;
12976;SDS011;6553;48.412;9.514;2023-09-08T11:37:34;5.47;;;5.07;;
12976;SDS011;6553;48.412;9.514;2023-09-08T11:40:04;4.82;;;4.43;;
12976;SDS011;6553;48.412;9.514;2023-09-08T11:42:34;5.30;;;4.90;;
12976;SDS011;6553;48.412;9.514;2023-09-08T11:45:00;4.88;;;4.47;;
12976;SDS011;6553;48.412;9.514;2023-09-08T11:47:28;5.60;;;4.90;;
12976;SDS011;6553;48.412;9.514;2023-09-08T11:49:56;5.53;;;5.10;;
12976;SDS011;6553;48.412;9.514;2023-09-08T11:52:23;5.30;;;4.80;;
12976;SDS011;6553;48.412;9.514;2023-09-08T11:54:49;5.35;;;4.95;;
12976;SDS011;6553;48.412;9.514;2023-09-08T11:57:16;5.30;;;4.70;;
12976;SDS011;6553;48.412;9.514;2023-09-08T11:59:43;5.43;;;5.03;;
12976;SDS011;6553;48.412;9.514;2023-09-08T12:02:13;5.47;;;5.00;;
12976;SDS011;6553;48.412;9.514;2023-09-08T12:04:39;5.57;;;4.70;;
12976;SDS011;6553;48.412;9.514;2023-09-08T12:07:07;5.38;;;4.88;;
12976;SDS011;6553;48.412;9.514;2023-09-08T12:09:41;9.20;;;5.28;;
12976;SDS011;6553;48.412;9.514;2023-09-08T12:12:11;6.18;;;4.82;;
12976;SDS011;6553;48.412;9.514;2023-09-08T12:14:41;4.70;;;4.30;;
12976;SDS011;6553;48.412;9.514;2023-09-08T12:17:07;6.97;;;6.18;;
12976;SDS011;6553;48.412;9.514;2023-09-08T12:19:33;5.47;;;5.00;;
12976;SDS011;6553;48.412;9.514;2023-09-08T12:22:02;6.47;;;5.88;;
12976;SDS011;6553;48.412;9.514;2023-09-08T12:27:35;6.70;;;5.38;;
12976;SDS011;6553;48.412;9.514;2023-09-08T12:30:02;6.00;;;5.43;;
12976;SDS011;6553;48.412;9.514;2023-09-08T12:32:33;5.88;;;5.38;;
12976;SDS011;6553;48.412;9.514;2023-09-08T12:35:00;5.03;;;4.63;;
12976;SDS011;6553;48.412;9.514;2023-09-08T12:37:29;6.00;;;5.13;;
12976;SDS011;6553;48.412;9.514;2023-09-08T12:39:55;6.15;;;5.50;;
12976;SDS011;6553;48.412;9.514;2023-09-08T12:42:21;6.30;;;5.20;;
12976;SDS011;6553;48.412;9.514;2023-09-08T12:44:51;9.43;;;5.38;;
12976;SDS011;6553;48.412;9.514;2023-09-08T12:47:17;5.50;;;5.00;;
12976;SDS011;6553;48.412;9.514;2023-09-08T12:49:42;5.35;;;4.60;;
12976;SDS011;6553;48.412;9.514;2023-09-08T12:52:08;6.57;;;5.35;;
12976;SDS011;6553;48.412;9.514;2023-09-08T12:54:34;5.25;;;4.85;;
12976;SDS011;6553;48.412;9.514;2023-09-08T12:57:01;5.53;;;4.93;;
12976;SDS011;6553;48.412;9.514;2023-09-08T12:59:27;5.40;;;4.90;;
12976;SDS011;6553;48.412;9.514;2023-09-08T13:01:53;9.35;;;4.97;;
12976;SDS011;6553;48.412;9.514;2023-09-08T13:04:20;5.78;;;4.80;;
12976;SDS011;6553;48.412;9.514;2023-09-08T13:06:47;5.32;;;4.93;;
12976;SDS011;6553;48.412;9.514;2023-09-08T13:09:14;5.65;;;4.95;;
12976;SDS011;6553;48.412;9.514;2023-09-08T13:11:41;5.32;;;4.93;;
12976;SDS011;6553;48.412;9.514;2023-09-08T13:14:08;5.32;;;4.93;;
12976;SDS011;6553;48.412;9.514;2023-09-08T13:16:34;5.68;;;4.93;;
12976;SDS011;6553;48.412;9.514;2023-09-08T13:18:59;5.68;;;5.20;;
12976;SDS011;6553;48.412;9.514;2023-09-08T13:21:25;5.40;;;5.00;;
12976;SDS011;6553;48.412;9.514;2023-09-08T13:23:51;5.60;;;5.10;;
12976;SDS011;6553;48.412;9.514;2023-09-08T13:26:17;5.63;;;5.18;;
12976;SDS011;6553;48.412;9.514;2023-09-08T13:28:42;5.45;;;5.03;;
12976;SDS011;6553;48.412;9.514;2023-09-08T13:31:08;5.63;;;5.13;;
12976;SDS011;6553;48.412;9.514;2023-09-08T13:33:34;5.22;;;4.82;;
12976;SDS011;6553;48.412;9.514;2023-09-08T13:36:00;5.53;;;5.00;;
12976;SDS011;6553;48.412;9.514;2023-09-08T13:38:25;5.70;;;5.20;;
12976;SDS011;6553;48.412;9.514;2023-09-08T13:40:51;5.80;;;5.00;;
12976;SDS011;6553;48.412;9.514;2023-09-08T13:43:18;6.00;;;5.13;;
12976;SDS011;6553;48.412;9.514;2023-09-08T13:45:44;5.05;;;4.65;;
12976;SDS011;6553;48.412;9.514;2023-09-08T13:48:10;4.97;;;4.47;;
12976;SDS011;6553;48.412;9.514;2023-09-08T13:50:37;5.95;;;5.45;;
12976;SDS011;6553;48.412;9.514;2023-09-08T13:53:06;5.68;;;4.90;;
12976;SDS011;6553;48.412;9.514;2023-09-08T13:55:32;5.35;;;4.95;;
12976;SDS011;6553;48.412;9.514;2023-09-08T13:57:58;5.82;;;5.32;;
12976;SDS011;6553;48.412;9.514;2023-09-08T14:00:24;5.85;;;5.35;;
12976;SDS011;6553;48.412;9.514;2023-09-08T14:02:50;5.57;;;5.18;;
12976;SDS011;6553;48.412;9.514;2023-09-08T14:05:15;5.95;;;5.50;;
12976;SDS011;6553;48.412;9.514;2023-09-08T14:07:41;5.43;;;5.00;;
12976;SDS011;6553;48.412;9.514;2023-09-08T14:10:07;5.40;;;5.00;;
12976;SDS011;6553;48.412;9.514;2023-09-08T14:12:34;7.50;;;6.90;;
12976;SDS011;6553;48.412;9.514;2023-09-08T14:15:00;7.70;;;7.00;;
12976;SDS011;6553;48.412;9.514;2023-09-08T14:17:25;6.13;;;5.53;;
12976;SDS011;6553;48.412;9.514;2023-09-08T14:19:51;6.32;;;5.35;;
12976;SDS011;6553;48.412;9.514;2023-09-08T14:22:17;7.20;;;6.50;;
12976;SDS011;6553;48.412;9.514;2023-09-08T14:24:42;6.22;;;5.72;;
12976;SDS011;6553;48.412;9.514;2023-09-08T14:27:08;6.32;;;5.72;;
12976;SDS011;6553;48.412;9.514;2023-09-08T14:29:34;6.63;;;6.03;;
12976;SDS011;6553;48.412;9.514;2023-09-08T14:32:00;7.10;;;6.50;;
12976;SDS011;6553;48.412;9.514;2023-09-08T14:34:26;6.30;;;5.80;;
12976;SDS011;6553;48.412;9.514;2023-09-08T14:36:51;6.30;;;5.78;;
12976;SDS011;6553;48.412;9.514;2023-09-08T14:39:17;5.85;;;5.28;;
12976;SDS011;6553;48.412;9.514;2023-09-08T14:41:47;7.03;;;6.32;;
12976;SDS011;6553;48.412;9.514;2023-09-08T14:44:15;6.38;;;5.88;;
12976;SDS011;6553;48.412;9.514;2023-09-08T14:46:41;6.53;;;5.93;;
12976;SDS011;6553;48.412;9.514;2023-09-08T14:49:07;6.07;;;5.57;;
12976;SDS011;6553;48.412;9.514;2023-09-08T14:51:32;6.05;;;5.55;;
12976;SDS011;6553;48.412;9.514;2023-09-08T14:53:58;5.70;;;5.30;;
12976;SDS011;6553;48.412;9.514;2023-09-08T14:56:24;6.10;;;5.50;;
12976;SDS011;6553;48.412;9.514;2023-09-08T14:58:49;6.03;;;5.53;;
12976;SDS011;6553;48.412;9.514;2023-09-08T15:01:15;6.10;;;5.60;;
12976;SDS011;6553;48.412;9.514;2023-09-08T15:03:41;6.05;;;5.53;;
12976;SDS011;6553;48.412;9.514;2023-09-08T15:06:07;6.18;;;5.68;;
12976;SDS011;6553;48.412;9.514;2023-09-08T15:08:34;6.50;;;5.95;;
12976;SDS011;6553;48.412;9.514;2023-09-08T15:11:00;6.50;;;6.00;;
12976;SDS011;6553;48.412;9.514;2023-09-08T15:13:26;6.30;;;5.57;;
12976;SDS011;6553;48.412;9.514;2023-09-08T15:15:51;6.30;;;5.80;;